Wetterdaten: Woche 13.03.17 - 19.03.17 (KW11)
Datum Zeit Temp. A. Feuchte A. Luftdruck Regen Wind Richtung Taupunkt Windchill Windben
13.03.2017 00:00 -0,8 C 89 % 1017,8 hPa 0,0 l/m 0,0 km/h (0 Bft) SW -2,3 C -0,8 C 0,0 km/h (0 Bft)
13.03.2017 01:00 -1,3 C 91 % 1018,7 hPa 0,0 l/m 0,0 km/h (0 Bft) SW -2,6 C -1,3 C 0,0 km/h (0 Bft)
13.03.2017 02:00 -1,8 C 92 % 1019,4 hPa 0,0 l/m 0,0 km/h (0 Bft) SW -2,9 C -1,8 C 0,3 km/h (0 Bft)
13.03.2017 03:00 -2,4 C 93 % 1019,6 hPa 0,0 l/m 0,0 km/h (0 Bft) SW -3,4 C -2,4 C 0,3 km/h (0 Bft)
13.03.2017 04:00 -2,8 C 93 % 1019,8 hPa 0,0 l/m 0,0 km/h (0 Bft) SW -3,7 C -2,8 C 0,4 km/h (0 Bft)
13.03.2017 05:00 -3,3 C 93 % 1020,5 hPa 0,0 l/m 0,0 km/h (0 Bft) SW -4,2 C -3,3 C 0,0 km/h (0 Bft)
13.03.2017 06:00 -3,7 C 94 % 1021,0 hPa 0,0 l/m 0,0 km/h (0 Bft) SW -4,5 C -3,7 C 0,0 km/h (0 Bft)
13.03.2017 07:00 -3,3 C 95 % 1022,0 hPa 0,0 l/m 0,0 km/h (0 Bft) SW -4,0 C -3,3 C 0,0 km/h (0 Bft)
13.03.2017 08:00 0,5 C 89 % 1022,7 hPa 0,0 l/m 0,7 km/h (0 Bft) SW -1,2 C 0,5 C 2,1 km/h (1 Bft)
13.03.2017 09:00 4,2 C 76 % 1023,1 hPa 0,0 l/m 1,8 km/h (1 Bft) W-NW 0,3 C 4,2 C 4,5 km/h (1 Bft)
13.03.2017 10:00 7,3 C 63 % 1023,6 hPa 0,0 l/m 2,0 km/h (1 Bft) NO 0,8 C 7,3 C 4,8 km/h (1 Bft)
13.03.2017 11:00 9,8 C 52 % 1023,8 hPa 0,0 l/m 3,5 km/h (1 Bft) W-NW 0,3 C 9,8 C 7,1 km/h (2 Bft)
13.03.2017 12:00 11,8 C 45 % 1024,0 hPa 0,0 l/m 2,6 km/h (1 Bft) W-NW 0,1 C 11,8 C 4,7 km/h (1 Bft)
13.03.2017 13:00 13,2 C 42 % 1024,2 hPa 0,0 l/m 3,3 km/h (1 Bft) W-NW 0,4 C 13,2 C 5,7 km/h (2 Bft)
13.03.2017 14:00 13,3 C 42 % 1024,1 hPa 0,0 l/m 3,2 km/h (1 Bft) W-NW 0,7 C 13,3 C 5,5 km/h (2 Bft)
13.03.2017 15:00 12,7 C 44 % 1024,5 hPa 0,0 l/m 3,0 km/h (1 Bft) W 0,9 C 12,7 C 8,2 km/h (2 Bft)
13.03.2017 16:00 12,9 C 45 % 1025,2 hPa 0,0 l/m 2,1 km/h (1 Bft) W-NW 1,4 C 12,9 C 5,2 km/h (1 Bft)
13.03.2017 17:00 12,1 C 49 % 1026,4 hPa 0,0 l/m 1,3 km/h (1 Bft) W 1,7 C 12,1 C 3,5 km/h (1 Bft)
13.03.2017 18:00 9,5 C 59 % 1027,2 hPa 0,0 l/m 0,4 km/h (0 Bft) N-NW 1,8 C 9,5 C 1,9 km/h (1 Bft)
13.03.2017 19:00 5,7 C 72 % 1028,1 hPa 0,0 l/m 0,2 km/h (0 Bft) N-NW 1,0 C 5,7 C 1,1 km/h (0 Bft)
13.03.2017 20:00 3,2 C 81 % 1028,8 hPa 0,0 l/m 0,1 km/h (0 Bft) N-NW 0,1 C 3,2 C 1,1 km/h (0 Bft)
13.03.2017 21:00 1,7 C 84 % 1029,6 hPa 0,0 l/m 0,1 km/h (0 Bft) N-NW -0,7 C 1,7 C 0,5 km/h (0 Bft)
13.03.2017 22:00 1,2 C 88 % 1030,3 hPa 0,0 l/m 0,0 km/h (0 Bft) N-NW -0,6 C 1,2 C 0,3 km/h (0 Bft)
13.03.2017 23:00 0,4 C 89 % 1030,9 hPa 0,0 l/m 0,0 km/h (0 Bft) N-NW -1,1 C 0,4 C 0,1 km/h (0 Bft)
14.03.2017 00:00 -0,6 C 91 % 1031,0 hPa 0,0 l/m 0,0 km/h (0 Bft) N-NW -1,8 C -0,6 C 0,0 km/h (0 Bft)
14.03.2017 01:00 -1,3 C 93 % 1031,5 hPa 0,0 l/m 0,0 km/h (0 Bft) N-NW -2,4 C -1,3 C 0,3 km/h (0 Bft)
14.03.2017 02:00 -1,9 C 93 % 1031,6 hPa 0,0 l/m 0,0 km/h (0 Bft) N-NW -2,9 C -1,9 C 0,0 km/h (0 Bft)
14.03.2017 03:00 -2,4 C 94 % 1031,6 hPa 0,0 l/m 0,0 km/h (0 Bft) N-NW -3,2 C -2,4 C 0,0 km/h (0 Bft)
14.03.2017 04:00 -2,6 C 95 % 1031,8 hPa 0,0 l/m 0,0 km/h (0 Bft) N-NW -3,4 C -2,6 C 0,0 km/h (0 Bft)
14.03.2017 05:00 -2,7 C 95 % 1032,1 hPa 0,0 l/m 0,0 km/h (0 Bft) N-NW -3,4 C -2,7 C 0,0 km/h (0 Bft)
14.03.2017 06:00 -2,7 C 95 % 1032,5 hPa 0,0 l/m 0,0 km/h (0 Bft) N-NW -3,4 C -2,7 C 0,0 km/h (0 Bft)
14.03.2017 07:00 -2,3 C 96 % 1032,8 hPa 0,0 l/m 0,0 km/h (0 Bft) N-NW -2,9 C -2,3 C 0,1 km/h (0 Bft)
14.03.2017 08:00 0,2 C 94 % 1033,0 hPa 0,0 l/m 0,2 km/h (0 Bft) N-NW -0,6 C 0,2 C 1,1 km/h (0 Bft)
14.03.2017 09:00 5,3 C 82 % 1033,1 hPa 0,0 l/m 1,2 km/h (1 Bft) N-NW 2,5 C 5,3 C 3,1 km/h (1 Bft)
14.03.2017 10:00 10,3 C 60 % 1033,1 hPa 0,0 l/m 4,0 km/h (1 Bft) NO 2,8 C 10,3 C 8,8 km/h (2 Bft)
14.03.2017 11:00 12,0 C 52 % 1032,7 hPa 0,0 l/m 4,3 km/h (1 Bft) NO 2,4 C 12,0 C 9,6 km/h (2 Bft)
14.03.2017 12:00 13,1 C 48 % 1032,2 hPa 0,0 l/m 4,3 km/h (1 Bft) NO 2,4 C 13,1 C 9,0 km/h (2 Bft)
14.03.2017 13:00 14,4 C 44 % 1031,9 hPa 0,0 l/m 4,9 km/h (1 Bft) O 2,3 C 14,4 C 12,0 km/h (2 Bft)
14.03.2017 14:00 15,4 C 41 % 1031,6 hPa 0,0 l/m 3,9 km/h (1 Bft) O-NO 2,2 C 15,4 C 9,7 km/h (2 Bft)
14.03.2017 15:00 15,0 C 41 % 1031,4 hPa 0,0 l/m 5,6 km/h (2 Bft) N-NO 2,0 C 15,0 C 12,6 km/h (3 Bft)
14.03.2017 16:00 13,8 C 43 % 1031,1 hPa 0,0 l/m 6,6 km/h (2 Bft) NO 1,5 C 13,5 C 15,3 km/h (3 Bft)
14.03.2017 17:00 12,7 C 47 % 1031,6 hPa 0,0 l/m 2,4 km/h (1 Bft) O-NO 1,5 C 12,7 C 6,1 km/h (2 Bft)
14.03.2017 18:00 10,3 C 55 % 1031,9 hPa 0,0 l/m 0,4 km/h (0 Bft) N 1,5 C 10,3 C 1,2 km/h (1 Bft)
14.03.2017 19:00 7,1 C 68 % 1032,1 hPa 0,0 l/m 0,0 km/h (0 Bft) N 1,6 C 7,1 C 0,4 km/h (0 Bft)
14.03.2017 20:00 4,6 C 79 % 1032,4 hPa 0,0 l/m 0,0 km/h (0 Bft) N 1,2 C 4,6 C 0,1 km/h (0 Bft)
14.03.2017 21:00 3,2 C 84 % 1032,6 hPa 0,0 l/m 0,1 km/h (0 Bft) N 0,7 C 3,2 C 0,5 km/h (0 Bft)
14.03.2017 22:00 2,0 C 87 % 1032,9 hPa 0,0 l/m 0,0 km/h (0 Bft) N 0,0 C 2,0 C 0,2 km/h (0 Bft)
14.03.2017 23:00 1,1 C 90 % 1033,1 hPa 0,0 l/m 0,0 km/h (0 Bft) N -0,3 C 1,1 C 0,2 km/h (0 Bft)
15.03.2017 00:00 0,9 C 91 % 1032,7 hPa 0,0 l/m 0,0 km/h (0 Bft) N -0,4 C 0,9 C 0,5 km/h (0 Bft)
15.03.2017 01:00 0,6 C 93 % 1032,5 hPa 0,0 l/m 0,0 km/h (0 Bft) SO -0,4 C 0,6 C 0,7 km/h (0 Bft)
15.03.2017 02:00 0,6 C 93 % 1032,6 hPa 0,0 l/m 0,1 km/h (0 Bft) S-SO -0,5 C 0,6 C 0,7 km/h (0 Bft)
15.03.2017 03:00 0,1 C 93 % 1032,1 hPa 0,0 l/m 0,1 km/h (0 Bft) S-SO -0,9 C 0,1 C 0,5 km/h (0 Bft)
15.03.2017 04:00 -0,5 C 94 % 1031,8 hPa 0,0 l/m 0,1 km/h (0 Bft) S-SO -1,4 C -0,5 C 0,9 km/h (0 Bft)
15.03.2017 05:00 -1,3 C 94 % 1031,8 hPa 0,0 l/m 0,0 km/h (0 Bft) S-SO -2,1 C -1,3 C 0,0 km/h (0 Bft)
15.03.2017 06:00 -1,6 C 95 % 1031,6 hPa 0,0 l/m 0,0 km/h (0 Bft) S-SO -2,3 C -1,6 C 0,3 km/h (0 Bft)
15.03.2017 07:00 -0,9 C 96 % 1032,0 hPa 0,0 l/m 0,1 km/h (0 Bft) S-SO -1,6 C -0,9 C 0,9 km/h (0 Bft)
15.03.2017 08:00 1,6 C 93 % 1032,4 hPa 0,0 l/m 0,3 km/h (0 Bft) S-SO 0,5 C 1,6 C 1,6 km/h (1 Bft)
15.03.2017 09:00 5,6 C 83 % 1032,6 hPa 0,0 l/m 1,5 km/h (1 Bft) W-NW 2,9 C 5,6 C 3,3 km/h (1 Bft)
15.03.2017 10:00 9,2 C 72 % 1032,6 hPa 0,0 l/m 4,0 km/h (1 Bft) W-NW 4,4 C 9,2 C 9,5 km/h (2 Bft)
15.03.2017 11:00 10,1 C 71 % 1032,3 hPa 0,0 l/m 3,8 km/h (1 Bft) W-NW 5,1 C 10,1 C 8,9 km/h (2 Bft)
15.03.2017 12:00 11,4 C 66 % 1032,1 hPa 0,0 l/m 3,0 km/h (1 Bft) W 5,4 C 11,4 C 5,6 km/h (2 Bft)
15.03.2017 13:00 12,2 C 62 % 1031,5 hPa 0,0 l/m 3,1 km/h (1 Bft) NW 5,2 C 12,2 C 5,6 km/h (2 Bft)
15.03.2017 14:00 12,9 C 59 % 1031,0 hPa 0,0 l/m 2,8 km/h (1 Bft) NW 5,2 C 12,9 C 4,8 km/h (1 Bft)
15.03.2017 15:00 13,2 C 60 % 1030,6 hPa 0,0 l/m 2,8 km/h (1 Bft) NW 5,7 C 13,2 C 5,1 km/h (1 Bft)
15.03.2017 16:00 13,2 C 62 % 1030,2 hPa 0,0 l/m 3,0 km/h (1 Bft) NW 6,2 C 13,2 C 5,4 km/h (1 Bft)
15.03.2017 17:00 12,6 C 64 % 1030,0 hPa 0,0 l/m 2,4 km/h (1 Bft) SW 6,0 C 12,6 C 4,7 km/h (1 Bft)
15.03.2017 18:00 11,1 C 69 % 1030,0 hPa 0,0 l/m 0,9 km/h (0 Bft) W-SW 5,6 C 11,1 C 2,3 km/h (1 Bft)
15.03.2017 19:00 8,7 C 78 % 1030,1 hPa 0,0 l/m 0,0 km/h (0 Bft) N 5,0 C 8,7 C 0,2 km/h (0 Bft)
15.03.2017 20:00 6,7 C 85 % 1030,3 hPa 0,0 l/m 0,0 km/h (0 Bft) N 4,4 C 6,7 C 0,2 km/h (0 Bft)
15.03.2017 21:00 5,1 C 89 % 1030,3 hPa 0,0 l/m 0,0 km/h (0 Bft) N 3,4 C 5,1 C 0,1 km/h (0 Bft)
15.03.2017 22:00 3,7 C 91 % 1030,2 hPa 0,0 l/m 0,0 km/h (0 Bft) N 2,3 C 3,7 C 0,0 km/h (0 Bft)
15.03.2017 23:00 2,4 C 93 % 1030,1 hPa 0,0 l/m 0,0 km/h (0 Bft) N 1,4 C 2,4 C 0,1 km/h (0 Bft)
16.03.2017 00:00 1,6 C 93 % 1029,7 hPa 0,0 l/m 0,0 km/h (0 Bft) N 0,6 C 1,6 C 0,0 km/h (0 Bft)
16.03.2017 01:00 0,7 C 94 % 1029,2 hPa 0,0 l/m 0,0 km/h (0 Bft) W-SW -0,1 C 0,7 C 0,0 km/h (0 Bft)
16.03.2017 02:00 0,0 C 95 % 1028,6 hPa 0,0 l/m 0,0 km/h (0 Bft) W-SW -0,7 C 0,0 C 0,5 km/h (0 Bft)
16.03.2017 03:00 -0,6 C 95 % 1028,1 hPa 0,0 l/m 0,0 km/h (0 Bft) W-SW -1,3 C -0,6 C 0,0 km/h (0 Bft)
16.03.2017 04:00 -1,1 C 96 % 1027,8 hPa 0,0 l/m 0,0 km/h (0 Bft) W-SW -1,7 C -1,1 C 0,1 km/h (0 Bft)
16.03.2017 05:00 -1,0 C 96 % 1027,5 hPa 0,0 l/m 0,0 km/h (0 Bft) W-SW -1,5 C -1,0 C 0,0 km/h (0 Bft)
16.03.2017 06:00 -1,1 C 96 % 1027,4 hPa 0,0 l/m 0,0 km/h (0 Bft) W-SW -1,7 C -1,1 C 0,2 km/h (0 Bft)
16.03.2017 07:00 -1,2 C 97 % 1027,2 hPa 0,0 l/m 0,0 km/h (0 Bft) W-SW -1,6 C -1,2 C 0,3 km/h (0 Bft)
16.03.2017 08:00 0,7 C 97 % 1027,4 hPa 0,3 l/m 0,3 km/h (0 Bft) W-SW 0,3 C 0,7 C 1,5 km/h (1 Bft)
16.03.2017 09:00 5,6 C 92 % 1026,9 hPa 0,0 l/m 1,4 km/h (1 Bft) W-SW 4,5 C 5,6 C 2,8 km/h (1 Bft)
16.03.2017 10:00 10,4 C 74 % 1026,2 hPa 0,0 l/m 2,7 km/h (1 Bft) NW 6,1 C 10,4 C 6,3 km/h (2 Bft)
16.03.2017 11:00 13,0 C 65 % 1025,4 hPa 0,0 l/m 2,6 km/h (1 Bft) W-NW 6,4 C 13,0 C 6,7 km/h (2 Bft)
16.03.2017 12:00 14,5 C 53 % 1024,9 hPa 0,0 l/m 3,2 km/h (1 Bft) N-NW 5,1 C 14,5 C 6,9 km/h (2 Bft)
16.03.2017 13:00 16,6 C 35 % 1023,9 hPa 0,0 l/m 3,2 km/h (1 Bft) W-NW 0,7 C 16,6 C 6,9 km/h (2 Bft)
16.03.2017 14:00 17,6 C 26 % 1023,3 hPa 0,0 l/m 3,3 km/h (1 Bft) W-NW -2,4 C 17,6 C 8,2 km/h (2 Bft)
16.03.2017 15:00 17,7 C 24 % 1022,7 hPa 0,0 l/m 3,3 km/h (1 Bft) W-NW -3,0 C 17,7 C 7,6 km/h (2 Bft)
16.03.2017 16:00 17,7 C 23 % 1022,1 hPa 0,0 l/m 2,5 km/h (1 Bft) W-NW -3,5 C 17,7 C 6,8 km/h (2 Bft)
16.03.2017 17:00 16,5 C 30 % 1021,4 hPa 0,0 l/m 0,5 km/h (0 Bft) W-NW -1,3 C 16,5 C 1,8 km/h (1 Bft)
16.03.2017 18:00 12,8 C 43 % 1021,2 hPa 0,0 l/m 0,1 km/h (0 Bft) W-NW 0,5 C 12,8 C 0,6 km/h (0 Bft)
16.03.2017 19:00 7,3 C 63 % 1021,2 hPa 0,0 l/m 0,0 km/h (0 Bft) W-NW 0,7 C 7,3 C 0,7 km/h (0 Bft)
16.03.2017 20:00 4,9 C 70 % 1021,3 hPa 0,0 l/m 0,0 km/h (0 Bft) W-NW -0,1 C 4,9 C 0,8 km/h (0 Bft)
16.03.2017 21:00 3,3 C 76 % 1021,3 hPa 0,0 l/m 0,0 km/h (0 Bft) W-NW -0,6 C 3,3 C 0,3 km/h (0 Bft)
16.03.2017 22:00 2,4 C 79 % 1021,0 hPa 0,0 l/m 0,0 km/h (0 Bft) W-NW -0,9 C 2,4 C 0,0 km/h (0 Bft)
16.03.2017 23:00 1,7 C 83 % 1020,5 hPa 0,0 l/m 0,0 km/h (0 Bft) W-NW -0,9 C 1,7 C 0,3 km/h (0 Bft)
17.03.2017 00:00 1,3 C 86 % 1020,0 hPa 0,0 l/m 0,0 km/h (0 Bft) W-NW -0,7 C 1,3 C 0,2 km/h (0 Bft)
17.03.2017 01:00 0,9 C 88 % 1019,6 hPa 0,0 l/m 0,1 km/h (0 Bft) W-NW -0,8 C 0,9 C 0,5 km/h (0 Bft)
17.03.2017 02:00 0,4 C 90 % 1019,1 hPa 0,0 l/m 0,0 km/h (0 Bft) W-NW -1,0 C 0,4 C 0,0 km/h (0 Bft)
17.03.2017 03:00 0,2 C 92 % 1018,6 hPa 0,0 l/m 0,0 km/h (0 Bft) W-NW -0,9 C 0,2 C 0,5 km/h (0 Bft)
17.03.2017 04:00 -0,1 C 92 % 1018,3 hPa 0,0 l/m 0,0 km/h (0 Bft) W-NW -1,1 C -0,1 C 0,3 km/h (0 Bft)
17.03.2017 05:00 -0,3 C 94 % 1018,0 hPa 0,0 l/m 0,0 km/h (0 Bft) W-NW -1,2 C -0,3 C 0,2 km/h (0 Bft)
17.03.2017 06:00 -0,0 C 94 % 1018,1 hPa 0,0 l/m 0,2 km/h (0 Bft) W-NW -0,9 C -0,0 C 1,0 km/h (0 Bft)
17.03.2017 07:00 1,4 C 93 % 1018,2 hPa 0,0 l/m 0,6 km/h (0 Bft) W-NW 0,4 C 1,4 C 2,1 km/h (1 Bft)
17.03.2017 08:00 6,2 C 83 % 1017,9 hPa 0,0 l/m 0,9 km/h (0 Bft) W-NW 3,5 C 6,2 C 2,7 km/h (1 Bft)
17.03.2017 09:00 12,2 C 68 % 1017,5 hPa 0,0 l/m 4,9 km/h (1 Bft) O-NO 6,4 C 12,1 C 13,0 km/h (3 Bft)
17.03.2017 10:00 14,5 C 61 % 1017,1 hPa 0,0 l/m 6,4 km/h (2 Bft) O 7,1 C 14,4 C 15,6 km/h (3 Bft)
17.03.2017 11:00 15,9 C 58 % 1016,7 hPa 0,0 l/m 6,8 km/h (2 Bft) O 7,6 C 15,5 C 15,3 km/h (3 Bft)
17.03.2017 12:00 16,7 C 55 % 1016,0 hPa 0,0 l/m 8,7 km/h (2 Bft) O-NO 7,7 C 15,6 C 17,9 km/h (3 Bft)
17.03.2017 13:00 16,6 C 55 % 1015,2 hPa 0,0 l/m 7,1 km/h (2 Bft) O 7,5 C 16,1 C 16,9 km/h (3 Bft)
17.03.2017 14:00 16,6 C 53 % 1014,5 hPa 0,0 l/m 8,5 km/h (2 Bft) O 7,0 C 15,5 C 20,5 km/h (4 Bft)
17.03.2017 15:00 16,1 C 52 % 1014,1 hPa 0,0 l/m 7,1 km/h (2 Bft) O-NO 6,3 C 15,7 C 19,3 km/h (3 Bft)
17.03.2017 16:00 14,1 C 66 % 1014,6 hPa 0,0 l/m 5,7 km/h (2 Bft) SO 7,7 C 14,0 C 15,3 km/h (3 Bft)
17.03.2017 17:00 10,6 C 77 % 1015,5 hPa 0,0 l/m 4,6 km/h (1 Bft) O-NO 6,7 C 10,4 C 11,0 km/h (2 Bft)
17.03.2017 18:00 9,8 C 78 % 1015,5 hPa 0,0 l/m 4,1 km/h (1 Bft) O-NO 6,1 C 9,8 C 11,5 km/h (2 Bft)
17.03.2017 19:00 8,7 C 78 % 1016,1 hPa 0,0 l/m 3,9 km/h (1 Bft) O-NO 5,1 C 8,7 C 11,1 km/h (2 Bft)
17.03.2017 20:00 8,0 C 78 % 1016,3 hPa 0,0 l/m 3,1 km/h (1 Bft) O 4,4 C 8,0 C 9,3 km/h (2 Bft)
17.03.2017 21:00 7,1 C 79 % 1016,5 hPa 0,0 l/m 2,6 km/h (1 Bft) O-NO 3,7 C 7,1 C 8,6 km/h (2 Bft)
17.03.2017 22:00 6,6 C 80 % 1016,3 hPa 0,0 l/m 3,1 km/h (1 Bft) O 3,3 C 6,6 C 8,8 km/h (2 Bft)
17.03.2017 23:00 5,9 C 82 % 1015,4 hPa 0,0 l/m 3,4 km/h (1 Bft) O-NO 3,1 C 5,9 C 9,5 km/h (2 Bft)
18.03.2017 00:00 5,8 C 81 % 1014,8 hPa 0,0 l/m 4,4 km/h (1 Bft) O-NO 2,9 C 5,8 C 9,9 km/h (2 Bft)
18.03.2017 01:00 6,3 C 80 % 1013,6 hPa 0,0 l/m 7,0 km/h (2 Bft) O-NO 3,1 C 5,4 C 17,4 km/h (3 Bft)
18.03.2017 02:00 6,3 C 82 % 1013,1 hPa 0,0 l/m 8,2 km/h (2 Bft) O-NO 3,5 C 4,8 C 19,3 km/h (3 Bft)
18.03.2017 03:00 6,0 C 82 % 1012,5 hPa 0,0 l/m 9,8 km/h (2 Bft) O 3,2 C 3,4 C 23,7 km/h (4 Bft)
18.03.2017 04:00 5,2 C 88 % 1012,3 hPa 1,0 l/m 8,2 km/h (2 Bft) O-NO 3,4 C 3,7 C 21,0 km/h (4 Bft)
18.03.2017 05:00 4,9 C 91 % 1011,6 hPa 0,5 l/m 9,6 km/h (2 Bft) NO 3,5 C 2,3 C 19,1 km/h (3 Bft)
18.03.2017 06:00 4,9 C 91 % 1010,9 hPa 1,0 l/m 11,6 km/h (2 Bft) O-NO 3,6 C 1,0 C 23,8 km/h (4 Bft)
18.03.2017 07:00 5,0 C 92 % 1010,8 hPa 1,0 l/m 11,5 km/h (2 Bft) O-NO 3,7 C 1,1 C 27,5 km/h (5 Bft)
18.03.2017 08:00 5,0 C 93 % 1011,0 hPa 1,3 l/m 12,0 km/h (2 Bft) NO 3,9 C 0,9 C 28,7 km/h (5 Bft)
18.03.2017 09:00 5,2 C 92 % 1011,4 hPa 1,0 l/m 11,2 km/h (2 Bft) O-NO 4,1 C 1,6 C 26,3 km/h (4 Bft)
18.03.2017 10:00 5,0 C 93 % 1011,9 hPa 2,5 l/m 9,8 km/h (2 Bft) O-NO 4,0 C 2,3 C 24,9 km/h (4 Bft)
18.03.2017 11:00 5,4 C 94 % 1012,5 hPa 2,3 l/m 7,3 km/h (2 Bft) O-NO 4,5 C 4,5 C 17,0 km/h (3 Bft)
18.03.2017 12:00 5,7 C 94 % 1012,4 hPa 2,0 l/m 8,1 km/h (2 Bft) O 4,8 C 4,2 C 16,9 km/h (3 Bft)
18.03.2017 13:00 6,4 C 94 % 1012,4 hPa 1,0 l/m 7,0 km/h (2 Bft) O-NO 5,4 C 5,6 C 18,5 km/h (3 Bft)
18.03.2017 14:00 6,6 C 94 % 1012,2 hPa 1,0 l/m 7,0 km/h (2 Bft) O-NO 5,7 C 6,0 C 18,1 km/h (3 Bft)
18.03.2017 15:00 6,8 C 94 % 1012,3 hPa 1,3 l/m 8,8 km/h (2 Bft) O 5,9 C 4,9 C 20,2 km/h (4 Bft)
18.03.2017 16:00 6,8 C 95 % 1012,3 hPa 1,0 l/m 8,2 km/h (2 Bft) O-NO 6,0 C 5,4 C 18,6 km/h (3 Bft)
18.03.2017 17:00 6,9 C 95 % 1013,2 hPa 1,8 l/m 8,0 km/h (2 Bft) O-NO 6,1 C 5,6 C 17,0 km/h (3 Bft)
18.03.2017 18:00 6,9 C 95 % 1013,4 hPa 1,0 l/m 8,2 km/h (2 Bft) O-NO 6,1 C 5,5 C 16,6 km/h (3 Bft)
18.03.2017 19:00 7,0 C 95 % 1013,7 hPa 1,0 l/m 7,0 km/h (2 Bft) O 6,2 C 6,3 C 17,0 km/h (3 Bft)
18.03.2017 20:00 6,9 C 95 % 1013,8 hPa 0,5 l/m 8,5 km/h (2 Bft) O-NO 6,2 C 5,3 C 21,2 km/h (4 Bft)
18.03.2017 21:00 6,9 C 95 % 1014,3 hPa 1,0 l/m 8,2 km/h (2 Bft) O-NO 6,2 C 5,5 C 19,4 km/h (3 Bft)
18.03.2017 22:00 7,0 C 95 % 1014,4 hPa 2,0 l/m 7,1 km/h (2 Bft) O-NO 6,3 C 6,2 C 17,2 km/h (3 Bft)
18.03.2017 23:00 6,9 C 95 % 1014,4 hPa 1,8 l/m 8,2 km/h (2 Bft) O 6,2 C 5,5 C 19,4 km/h (3 Bft)
19.03.2017 00:00 6,9 C 95 % 1014,5 hPa 2,0 l/m 7,5 km/h (2 Bft) O-NO 6,2 C 5,9 C 16,3 km/h (3 Bft)
19.03.2017 01:00 7,1 C 95 % 1014,3 hPa 1,3 l/m 7,4 km/h (2 Bft) O-NO 6,4 C 6,2 C 19,0 km/h (3 Bft)
19.03.2017 02:00 7,2 C 96 % 1014,1 hPa 2,0 l/m 7,5 km/h (2 Bft) NO 6,6 C 6,3 C 17,7 km/h (3 Bft)
19.03.2017 03:00 7,3 C 96 % 1014,0 hPa 0,8 l/m 7,2 km/h (2 Bft) O 6,7 C 6,7 C 17,3 km/h (3 Bft)
19.03.2017 04:00 7,4 C 96 % 1014,4 hPa 1,3 l/m 6,3 km/h (2 Bft) O-NO 6,8 C 7,2 C 16,6 km/h (3 Bft)
19.03.2017 05:00 7,5 C 96 % 1014,3 hPa 0,8 l/m 6,0 km/h (2 Bft) O-NO 6,9 C 7,0 C 14,2 km/h (3 Bft)
19.03.2017 06:00 7,6 C 96 % 1014,4 hPa 0,5 l/m 5,5 km/h (2 Bft) NO 7,0 C 7,4 C 12,9 km/h (3 Bft)
19.03.2017 07:00 7,6 C 96 % 1014,8 hPa 0,3 l/m 4,5 km/h (1 Bft) O-NO 7,0 C 7,6 C 12,6 km/h (3 Bft)
19.03.2017 08:00 7,7 C 96 % 1015,1 hPa 0,3 l/m 4,1 km/h (1 Bft) N-NO 7,1 C 7,6 C 12,1 km/h (2 Bft)
19.03.2017 09:00 8,1 C 95 % 1015,0 hPa 0,0 l/m 4,2 km/h (1 Bft) NO 7,4 C 8,1 C 12,8 km/h (3 Bft)
19.03.2017 10:00 8,5 C 94 % 1014,6 hPa 0,0 l/m 5,8 km/h (2 Bft) O-NO 7,6 C 8,2 C 16,5 km/h (3 Bft)
19.03.2017 11:00 9,2 C 93 % 1014,2 hPa 0,0 l/m 6,1 km/h (2 Bft) O-NO 8,1 C 8,8 C 15,9 km/h (3 Bft)
19.03.2017 12:00 9,7 C 92 % 1014,2 hPa 0,0 l/m 5,9 km/h (2 Bft) O 8,4 C 9,2 C 13,7 km/h (3 Bft)
19.03.2017 13:00 9,7 C 91 % 1013,8 hPa 0,0 l/m 5,9 km/h (2 Bft) O-NO 8,3 C 9,6 C 17,3 km/h (3 Bft)
19.03.2017 14:00 9,9 C 90 % 1013,5 hPa 0,0 l/m 4,9 km/h (1 Bft) NO 8,4 C 9,9 C 12,0 km/h (2 Bft)
19.03.2017 15:00 10,4 C 89 % 1013,4 hPa 0,0 l/m 3,8 km/h (1 Bft) O-NO 8,6 C 10,4 C 10,3 km/h (2 Bft)
19.03.2017 16:00 11,1 C 86 % 1012,8 hPa 0,0 l/m 5,9 km/h (2 Bft) O 8,8 C 10,8 C 15,8 km/h (3 Bft)
19.03.2017 17:00 10,5 C 86 % 1012,7 hPa 0,0 l/m 6,1 km/h (2 Bft) O-NO 8,3 C 10,3 C 13,1 km/h (3 Bft)
19.03.2017 18:00 10,0 C 88 % 1012,8 hPa 0,0 l/m 5,7 km/h (2 Bft) O-NO 8,0 C 10,0 C 13,5 km/h (3 Bft)
19.03.2017 19:00 9,4 C 89 % 1013,0 hPa 0,0 l/m 6,8 km/h (2 Bft) O-NO 7,7 C 8,9 C 15,6 km/h (3 Bft)
19.03.2017 20:00 9,2 C 89 % 1013,5 hPa 0,0 l/m 6,6 km/h (2 Bft) O 7,5 C 8,7 C 17,2 km/h (3 Bft)
19.03.2017 21:00 9,2 C 89 % 1013,6 hPa 0,0 l/m 6,8 km/h (2 Bft) O-NO 7,4 C 8,6 C 17,6 km/h (3 Bft)
19.03.2017 22:00 9,3 C 87 % 1013,4 hPa 0,0 l/m 5,2 km/h (1 Bft) O 7,2 C 9,2 C 16,1 km/h (3 Bft)
19.03.2017 23:00 9,2 C 86 % 1013,2 hPa 0,0 l/m 3,8 km/h (1 Bft) NO 7,1 C 9,2 C 11,7 km/h (2 Bft)
Min-Datum _ 13.03.17 16.03.17 18.03.17 - 17.03.17 - 16.03.17 13.03.17 17.03.17
_ Min-Zeit 07:10 13:50 06:40 - 07:10 - 13:50 07:10 06:00
Minimum _ -3,9 C 19 % 1010,5 hPa - 0,0 km/h (0 Bft) - -6,5 C -3,9 C 0,0 km/h (0 Bft)
Max-Datum _ 16.03.17 16.03.17 14.03.17 18.03.17 18.03.17 - 19.03.17 16.03.17 18.03.17
_ Max-Zeit 16:05 09:00 23:31 10:00 12:06 - 16:30 16:05 08:10
Maximum _ 17,8 C 98 % 1033,3 hPa 2,5 l/m 17,7 km/h
O (3 Bft)
- 9,0 C 17,8 C 41,8 km/h
NO (6 Bft)
Durchschnitt _ 6,4 C 80 % 1022,3 hPa #35,6 l/m 3,2 km/h (1 Bft) N 2,5 C 6,0 C 7,8 km/h (2 Bft)